createdAt,value
2023-03-11T00:02:28.316Z,40.64
2023-03-11T00:07:31.096Z,40.64
2023-03-11T00:12:33.998Z,40.80
2023-03-11T00:17:38.090Z,40.82
2023-03-11T00:22:41.122Z,40.81
2023-03-11T00:27:44.216Z,41.08
2023-03-11T00:32:49.620Z,40.86
2023-03-11T00:37:54.508Z,40.70
2023-03-11T00:42:57.424Z,40.62
2023-03-11T00:48:01.565Z,40.61
2023-03-11T00:53:04.634Z,40.56
2023-03-11T00:58:07.733Z,40.58
2023-03-11T01:03:17.909Z,40.85
2023-03-11T01:08:21.853Z,41.00
2023-03-11T01:13:24.781Z,41.06
2023-03-11T01:18:29.033Z,41.31
2023-03-11T01:23:32.457Z,41.58
2023-03-11T01:28:35.228Z,41.87
2023-03-11T01:33:39.458Z,42.39
2023-03-11T01:38:42.208Z,42.56
2023-03-11T01:43:50.249Z,42.80
2023-03-11T01:49:00.215Z,43.44
2023-03-11T01:54:07.882Z,43.29
2023-03-11T01:59:11.957Z,43.67
2023-03-11T02:04:16.398Z,43.74
2023-03-11T02:09:20.184Z,44.13
2023-03-11T02:14:23.132Z,44.46
2023-03-11T02:19:33.873Z,44.64
2023-03-11T02:24:38.398Z,44.73
2023-03-11T02:29:42.746Z,45.16
2023-03-11T02:34:45.589Z,45.43
2023-03-11T02:39:50.991Z,45.02
2023-03-11T02:44:58.993Z,45.49
2023-03-11T02:50:04.430Z,45.68
2023-03-11T02:55:08.458Z,45.77
2023-03-11T03:00:15.903Z,45.66
2023-03-11T03:05:25.367Z,45.91
2023-03-11T03:10:28.493Z,45.81
2023-03-11T03:15:32.921Z,46.21
2023-03-11T03:20:36.790Z,45.88
2023-03-11T03:25:42.805Z,45.93
2023-03-11T03:30:47.735Z,46.12
2023-03-11T03:35:51.085Z,46.24
2023-03-11T03:41:03.869Z,46.42
2023-03-11T03:46:08.444Z,46.19
2023-03-11T03:51:16.236Z,46.29
2023-03-11T03:56:31.662Z,46.45
2023-03-11T04:01:36.652Z,46.36
2023-03-11T04:06:39.469Z,46.54
2023-03-11T04:11:43.611Z,46.40
2023-03-11T04:16:50.187Z,46.65
2023-03-11T04:21:53.135Z,46.45
2023-03-11T04:26:57.792Z,46.38
2023-03-11T04:32:02.232Z,46.33
2023-03-11T04:37:06.209Z,46.84
2023-03-11T04:42:13.941Z,46.54
2023-03-11T04:47:21.664Z,46.42
2023-03-11T04:52:24.591Z,46.57
2023-03-11T04:57:28.172Z,46.84
2023-03-11T05:02:34.108Z,46.55
2023-03-11T05:07:38.090Z,46.43
2023-03-11T05:12:41.685Z,46.85
2023-03-11T05:17:47.089Z,46.72
2023-03-11T05:22:50.165Z,46.52
2023-03-11T05:27:52.994Z,46.96
2023-03-11T05:32:57.583Z,47.12
2023-03-11T05:38:00.874Z,46.81
2023-03-11T05:43:05.663Z,47.13
2023-03-11T05:48:13.977Z,47.30
2023-03-11T05:53:16.942Z,47.28
2023-03-11T05:58:19.825Z,47.33
2023-03-11T06:03:25.308Z,47.19
2023-03-11T06:08:28.180Z,47.37
2023-03-11T06:13:31.146Z,47.35
2023-03-11T06:18:35.432Z,47.49
2023-03-11T06:23:38.523Z,47.56
2023-03-11T06:28:41.363Z,47.53
2023-03-11T06:33:45.765Z,47.31
2023-03-11T06:38:50.005Z,47.23
2023-03-11T06:43:53.158Z,47.15
2023-03-11T06:48:58.006Z,47.76
2023-03-11T06:54:00.897Z,47.64
2023-03-11T06:59:04.614Z,47.82
2023-03-11T07:04:11.560Z,47.70
2023-03-11T07:09:16.994Z,47.68
2023-03-11T07:14:22.128Z,47.91
2023-03-11T07:19:30.358Z,47.82
2023-03-11T07:24:33.086Z,47.56
2023-03-11T07:29:35.904Z,47.64
2023-03-11T07:34:40.282Z,47.32
2023-03-11T07:39:43.191Z,47.49
2023-03-11T07:44:46.026Z,47.54
2023-03-11T07:49:50.280Z,48.03
2023-03-11T07:54:53.199Z,48.18
2023-03-11T07:59:55.977Z,48.00
2023-03-11T08:05:00.119Z,47.90
2023-03-11T08:10:04.257Z,46.06
2023-03-11T08:15:08.297Z,37.90
2023-03-11T08:20:13.689Z,32.99
2023-03-11T08:25:16.594Z,35.92
2023-03-11T08:30:19.928Z,37.79
2023-03-11T08:35:24.262Z,38.08
2023-03-11T08:40:27.429Z,38.91
2023-03-11T08:45:30.234Z,39.69
2023-03-11T08:50:44.178Z,39.77
2023-03-11T08:55:54.332Z,40.23
2023-03-11T09:00:57.221Z,40.39
2023-03-11T09:06:01.784Z,40.83
2023-03-11T09:11:05.515Z,40.71
2023-03-11T09:16:08.714Z,40.94
2023-03-11T09:21:13.010Z,41.03
2023-03-11T09:26:15.828Z,40.92
2023-03-11T09:31:19.005Z,40.65
2023-03-11T09:36:23.685Z,40.50
2023-03-11T09:41:33.177Z,40.72
2023-03-11T09:46:47.248Z,40.71
2023-03-11T09:51:54.064Z,40.59
2023-03-11T09:56:56.974Z,40.57
2023-03-11T10:01:59.809Z,40.82
2023-03-11T10:07:04.160Z,41.06
2023-03-11T10:12:13.717Z,41.02
2023-03-11T10:17:21.850Z,41.08
2023-03-11T10:22:28.042Z,41.16
2023-03-11T10:27:32.756Z,38.84
2023-03-11T10:32:38.956Z,41.14
2023-03-11T10:37:49.716Z,40.77
2023-03-11T10:42:53.053Z,40.95
2023-03-11T10:47:57.754Z,41.37
2023-03-11T10:53:10.265Z,31.56
2023-03-11T10:58:14.088Z,39.91
2023-03-11T11:03:21.403Z,39.59
2023-03-11T11:08:25.544Z,39.59
2023-03-11T11:13:30.159Z,39.67
2023-03-11T11:18:34.402Z,40.33
2023-03-11T11:23:42.739Z,40.49
2023-03-11T11:28:45.590Z,40.61
2023-03-11T11:33:50.904Z,40.77
2023-03-11T11:38:56.156Z,40.80
2023-03-11T11:43:59.901Z,41.25
2023-03-11T11:49:09.528Z,41.71
2023-03-11T11:54:18.100Z,42.37
2023-03-11T11:59:23.020Z,41.97
2023-03-11T12:04:45.131Z,42.06
2023-03-11T12:09:54.844Z,41.90
2023-03-11T12:15:00.705Z,41.99
2023-03-11T12:20:04.966Z,42.10
2023-03-11T12:25:22.121Z,42.05
2023-03-11T12:30:27.669Z,41.94
2023-03-11T12:35:31.409Z,41.99
2023-03-11T12:40:48.315Z,42.11
2023-03-11T12:45:51.652Z,42.12
2023-03-11T12:50:55.105Z,42.07
2023-03-11T12:56:03.637Z,42.51
2023-03-11T13:01:35.554Z,42.27
2023-03-11T13:06:46.136Z,42.09
2023-03-11T13:11:51.247Z,42.03
2023-03-11T13:16:54.028Z,42.52
2023-03-11T13:21:58.986Z,42.72
2023-03-11T13:27:05.314Z,42.63
2023-03-11T13:32:18.766Z,42.88
2023-03-11T13:37:26.214Z,42.78
2023-03-11T13:42:31.439Z,42.84
2023-03-11T13:47:34.232Z,42.74
2023-03-11T13:52:38.629Z,42.64
2023-03-11T13:57:42.918Z,42.92
2023-03-11T14:02:50.983Z,42.72
2023-03-11T14:07:53.863Z,42.78
2023-03-11T14:13:08.050Z,42.22
2023-03-11T14:18:35.724Z,42.14
2023-03-11T14:23:43.429Z,42.39
2023-03-11T14:28:48.802Z,42.80
2023-03-11T14:34:04.005Z,42.17
2023-03-11T14:39:06.834Z,41.87
2023-03-11T14:44:11.202Z,41.25
2023-03-11T14:49:15.001Z,41.09
2023-03-11T14:54:18.831Z,41.26
2023-03-11T14:59:26.660Z,41.14
2023-03-11T15:04:32.648Z,40.86
2023-03-11T15:09:35.460Z,40.11
2023-03-11T15:14:50.148Z,39.67
2023-03-11T15:19:52.912Z,39.77
2023-03-11T15:24:56.428Z,39.44
2023-03-11T15:30:00.670Z,38.15
2023-03-11T15:35:04.547Z,37.68
2023-03-11T15:40:12.895Z,37.08
2023-03-11T15:45:18.037Z,35.93
2023-03-11T15:50:27.287Z,36.17
2023-03-11T15:55:33.127Z,36.67
2023-03-11T16:00:37.567Z,36.78
2023-03-11T16:05:40.636Z,36.62
2023-03-11T16:10:43.733Z,37.00
2023-03-11T16:15:48.002Z,37.27
2023-03-11T16:20:51.452Z,37.54
2023-03-11T16:25:54.701Z,37.88
2023-03-11T16:30:58.994Z,38.26
2023-03-11T16:36:01.958Z,38.23
2023-03-11T16:41:05.140Z,38.63
2023-03-11T16:46:09.514Z,39.18
2023-03-11T16:51:12.351Z,39.69
2023-03-11T16:56:15.224Z,40.03
2023-03-11T17:01:21.791Z,40.33
2023-03-11T17:06:24.651Z,40.49
2023-03-11T17:11:29.470Z,40.70
2023-03-11T17:16:36.395Z,41.37
2023-03-11T17:21:39.186Z,41.87
2023-03-11T17:26:41.931Z,42.27
2023-03-11T17:31:46.123Z,42.23
2023-03-11T17:36:48.902Z,42.26
2023-03-11T17:41:52.025Z,41.76
2023-03-11T17:46:56.148Z,41.72
2023-03-11T17:51:59.100Z,42.02
2023-03-11T17:57:02.074Z,42.06
2023-03-11T18:02:06.617Z,41.95
2023-03-11T18:07:09.466Z,42.06
2023-03-11T18:12:12.367Z,41.80
2023-03-11T18:17:18.357Z,41.90
2023-03-11T18:22:21.391Z,41.98
2023-03-11T18:27:24.511Z,41.72
2023-03-11T18:32:28.726Z,41.95
2023-03-11T18:37:33.273Z,41.85
2023-03-11T18:42:36.328Z,41.86
2023-03-11T18:47:40.838Z,41.87
2023-03-11T18:52:43.894Z,42.08
2023-03-11T18:57:47.416Z,42.04
2023-03-11T19:02:54.836Z,41.84
2023-03-11T19:07:57.623Z,41.87
2023-03-11T19:13:00.465Z,41.75
2023-03-11T19:18:07.320Z,42.25
2023-03-11T19:23:11.483Z,42.41
2023-03-11T19:28:14.307Z,42.61
2023-03-11T19:33:18.457Z,42.70
2023-03-11T19:38:21.284Z,42.93
2023-03-11T19:43:24.766Z,43.03
2023-03-11T19:48:29.027Z,42.95
2023-03-11T19:53:31.829Z,43.04
2023-03-11T19:58:34.597Z,42.96
2023-03-11T20:03:39.137Z,43.05
2023-03-11T20:08:41.915Z,43.11
2023-03-11T20:13:44.814Z,43.09
2023-03-11T20:18:50.999Z,43.11
2023-03-11T20:23:54.781Z,43.06
2023-03-11T20:28:57.775Z,42.99
2023-03-11T20:34:02.069Z,43.17
2023-03-11T20:39:05.850Z,43.18
2023-03-11T20:44:10.109Z,43.03
2023-03-11T20:49:14.445Z,43.11
2023-03-11T20:54:17.648Z,42.98
2023-03-11T20:59:20.697Z,43.43
2023-03-11T21:04:25.409Z,42.97
2023-03-11T21:09:28.342Z,43.00
2023-03-11T21:14:31.448Z,43.10
2023-03-11T21:19:35.608Z,42.55
2023-03-11T21:24:38.467Z,42.38
2023-03-11T21:29:43.823Z,42.74
2023-03-11T21:34:48.047Z,42.70
2023-03-11T21:39:51.121Z,42.83
2023-03-11T21:44:54.009Z,42.85
2023-03-11T21:49:58.225Z,42.85
2023-03-11T21:55:01.160Z,43.05
2023-03-11T22:00:06.853Z,42.94
2023-03-11T22:05:12.088Z,42.86
2023-03-11T22:10:15.744Z,43.06
2023-03-11T22:15:18.834Z,42.81
2023-03-11T22:20:23.189Z,42.96
2023-03-11T22:25:26.211Z,42.83
2023-03-11T22:30:29.020Z,42.81
2023-03-11T22:35:33.248Z,42.86
2023-03-11T22:40:36.113Z,43.08
2023-03-11T22:45:38.917Z,42.98
2023-03-11T22:50:44.266Z,42.95
2023-03-11T22:55:47.082Z,43.00
2023-03-11T23:00:49.963Z,42.96
2023-03-11T23:05:54.179Z,43.10
2023-03-11T23:10:56.996Z,43.09
2023-03-11T23:16:04.464Z,43.16
2023-03-11T23:21:16.574Z,43.29
2023-03-11T23:26:19.570Z,43.30
2023-03-11T23:31:23.093Z,43.50
2023-03-11T23:36:30.265Z,43.48
2023-03-11T23:41:33.393Z,43.76
2023-03-11T23:46:36.184Z,43.71
2023-03-11T23:51:40.354Z,43.67
2023-03-11T23:56:44.586Z,43.59
